sensor_id;sensor_type;location;lat;lon;timestamp;P1;durP1;ratioP1;P2;durP2;ratioP2
69878;SDS011;57161;43.136;24.706;2024-02-28T00:02:10;24.63;;;11.73;;
69878;SDS011;57161;43.136;24.706;2024-02-28T00:04:36;19.13;;;10.75;;
69878;SDS011;57161;43.136;24.706;2024-02-28T00:07:03;21.73;;;12.05;;
69878;SDS011;57161;43.136;24.706;2024-02-28T00:09:28;23.48;;;11.65;;
69878;SDS011;57161;43.136;24.706;2024-02-28T00:11:57;20.35;;;11.70;;
69878;SDS011;57161;43.136;24.706;2024-02-28T00:14:22;19.90;;;11.13;;
69878;SDS011;57161;43.136;24.706;2024-02-28T00:16:48;22.02;;;11.68;;
69878;SDS011;57161;43.136;24.706;2024-02-28T00:19:14;22.35;;;11.70;;
69878;SDS011;57161;43.136;24.706;2024-02-28T00:21:40;24.48;;;11.80;;
69878;SDS011;57161;43.136;24.706;2024-02-28T00:24:08;24.88;;;12.40;;
69878;SDS011;57161;43.136;24.706;2024-02-28T00:26:34;20.75;;;11.95;;
69878;SDS011;57161;43.136;24.706;2024-02-28T00:28:59;22.48;;;11.65;;
69878;SDS011;57161;43.136;24.706;2024-02-28T00:31:25;23.02;;;10.95;;
69878;SDS011;57161;43.136;24.706;2024-02-28T00:33:50;17.77;;;11.00;;
69878;SDS011;57161;43.136;24.706;2024-02-28T00:36:16;21.08;;;11.32;;
69878;SDS011;57161;43.136;24.706;2024-02-28T00:38:42;21.33;;;11.02;;
69878;SDS011;57161;43.136;24.706;2024-02-28T00:41:07;26.48;;;11.80;;
69878;SDS011;57161;43.136;24.706;2024-02-28T00:43:33;19.92;;;11.32;;
69878;SDS011;57161;43.136;24.706;2024-02-28T00:45:58;21.27;;;11.45;;
69878;SDS011;57161;43.136;24.706;2024-02-28T00:48:24;27.67;;;12.98;;
69878;SDS011;57161;43.136;24.706;2024-02-28T00:50:50;21.65;;;12.02;;
69878;SDS011;57161;43.136;24.706;2024-02-28T00:53:17;26.17;;;10.93;;
69878;SDS011;57161;43.136;24.706;2024-02-28T00:55:42;25.05;;;11.20;;
69878;SDS011;57161;43.136;24.706;2024-02-28T00:58:11;25.85;;;11.75;;
69878;SDS011;57161;43.136;24.706;2024-02-28T01:00:37;21.33;;;11.05;;
69878;SDS011;57161;43.136;24.706;2024-02-28T01:03:02;22.15;;;11.18;;
69878;SDS011;57161;43.136;24.706;2024-02-28T01:05:34;23.58;;;12.02;;
69878;SDS011;57161;43.136;24.706;2024-02-28T01:07:59;19.30;;;10.15;;
69878;SDS011;57161;43.136;24.706;2024-02-28T01:10:25;22.33;;;10.82;;
69878;SDS011;57161;43.136;24.706;2024-02-28T01:12:50;28.63;;;11.55;;
69878;SDS011;57161;43.136;24.706;2024-02-28T01:15:15;20.92;;;10.82;;
69878;SDS011;57161;43.136;24.706;2024-02-28T01:17:41;20.35;;;11.23;;
69878;SDS011;57161;43.136;24.706;2024-02-28T01:20:06;21.65;;;11.38;;
69878;SDS011;57161;43.136;24.706;2024-02-28T01:22:33;23.35;;;11.35;;
69878;SDS011;57161;43.136;24.706;2024-02-28T01:24:59;24.00;;;11.13;;
69878;SDS011;57161;43.136;24.706;2024-02-28T01:27:24;20.75;;;11.23;;
69878;SDS011;57161;43.136;24.706;2024-02-28T01:29:50;27.58;;;11.38;;
69878;SDS011;57161;43.136;24.706;2024-02-28T01:32:15;19.85;;;11.32;;
69878;SDS011;57161;43.136;24.706;2024-02-28T01:34:41;18.98;;;11.23;;
69878;SDS011;57161;43.136;24.706;2024-02-28T01:37:06;19.20;;;10.82;;
69878;SDS011;57161;43.136;24.706;2024-02-28T01:39:32;23.00;;;11.80;;
69878;SDS011;57161;43.136;24.706;2024-02-28T01:41:57;21.67;;;11.18;;
69878;SDS011;57161;43.136;24.706;2024-02-28T01:44:23;20.00;;;11.88;;
69878;SDS011;57161;43.136;24.706;2024-02-28T01:46:48;21.33;;;11.52;;
69878;SDS011;57161;43.136;24.706;2024-02-28T01:49:14;20.75;;;11.68;;
69878;SDS011;57161;43.136;24.706;2024-02-28T01:51:41;23.27;;;11.40;;
69878;SDS011;57161;43.136;24.706;2024-02-28T01:54:07;21.33;;;11.45;;
69878;SDS011;57161;43.136;24.706;2024-02-28T01:56:33;18.92;;;10.93;;
69878;SDS011;57161;43.136;24.706;2024-02-28T01:58:59;20.52;;;11.18;;
69878;SDS011;57161;43.136;24.706;2024-02-28T02:01:26;21.45;;;11.93;;
69878;SDS011;57161;43.136;24.706;2024-02-28T02:03:53;20.63;;;12.52;;
69878;SDS011;57161;43.136;24.706;2024-02-28T02:06:19;23.70;;;11.77;;
69878;SDS011;57161;43.136;24.706;2024-02-28T02:08:45;20.38;;;11.18;;
69878;SDS011;57161;43.136;24.706;2024-02-28T02:11:11;19.92;;;11.90;;
69878;SDS011;57161;43.136;24.706;2024-02-28T02:13:52;27.02;;;11.90;;
69878;SDS011;57161;43.136;24.706;2024-02-28T02:16:18;21.85;;;11.85;;
69878;SDS011;57161;43.136;24.706;2024-02-28T02:18:47;20.60;;;12.05;;
69878;SDS011;57161;43.136;24.706;2024-02-28T02:21:13;18.58;;;10.93;;
69878;SDS011;57161;43.136;24.706;2024-02-28T02:23:42;22.88;;;11.63;;
69878;SDS011;57161;43.136;24.706;2024-02-28T02:26:08;18.33;;;11.35;;
69878;SDS011;57161;43.136;24.706;2024-02-28T02:28:33;19.00;;;11.00;;
69878;SDS011;57161;43.136;24.706;2024-02-28T02:30:59;21.63;;;11.50;;
69878;SDS011;57161;43.136;24.706;2024-02-28T02:33:24;21.02;;;11.65;;
69878;SDS011;57161;43.136;24.706;2024-02-28T02:35:51;19.20;;;12.50;;
69878;SDS011;57161;43.136;24.706;2024-02-28T02:38:19;22.33;;;11.85;;
69878;SDS011;57161;43.136;24.706;2024-02-28T02:40:48;19.88;;;11.60;;
69878;SDS011;57161;43.136;24.706;2024-02-28T02:43:15;20.45;;;12.70;;
69878;SDS011;57161;43.136;24.706;2024-02-28T02:45:40;24.30;;;13.68;;
69878;SDS011;57161;43.136;24.706;2024-02-28T02:48:06;20.17;;;12.98;;
69878;SDS011;57161;43.136;24.706;2024-02-28T02:50:31;23.40;;;13.13;;
69878;SDS011;57161;43.136;24.706;2024-02-28T02:52:57;21.25;;;13.02;;
69878;SDS011;57161;43.136;24.706;2024-02-28T02:55:22;23.27;;;12.82;;
69878;SDS011;57161;43.136;24.706;2024-02-28T02:57:47;23.48;;;11.63;;
69878;SDS011;57161;43.136;24.706;2024-02-28T03:00:13;20.58;;;12.50;;
69878;SDS011;57161;43.136;24.706;2024-02-28T03:02:39;22.98;;;12.85;;
69878;SDS011;57161;43.136;24.706;2024-02-28T03:05:05;24.67;;;12.27;;
69878;SDS011;57161;43.136;24.706;2024-02-28T03:07:31;19.73;;;11.70;;
69878;SDS011;57161;43.136;24.706;2024-02-28T03:09:57;23.67;;;12.02;;
69878;SDS011;57161;43.136;24.706;2024-02-28T03:12:24;22.20;;;12.10;;
69878;SDS011;57161;43.136;24.706;2024-02-28T03:14:49;22.52;;;12.38;;
69878;SDS011;57161;43.136;24.706;2024-02-28T03:17:15;21.42;;;11.43;;
69878;SDS011;57161;43.136;24.706;2024-02-28T03:19:40;23.55;;;12.55;;
69878;SDS011;57161;43.136;24.706;2024-02-28T03:22:06;21.95;;;12.25;;
69878;SDS011;57161;43.136;24.706;2024-02-28T03:24:32;20.92;;;12.45;;
69878;SDS011;57161;43.136;24.706;2024-02-28T03:27:00;20.23;;;12.80;;
69878;SDS011;57161;43.136;24.706;2024-02-28T03:29:26;22.48;;;13.38;;
69878;SDS011;57161;43.136;24.706;2024-02-28T03:31:52;21.30;;;13.63;;
69878;SDS011;57161;43.136;24.706;2024-02-28T03:34:17;26.35;;;14.05;;
69878;SDS011;57161;43.136;24.706;2024-02-28T03:36:43;23.88;;;13.85;;
69878;SDS011;57161;43.136;24.706;2024-02-28T03:39:11;24.60;;;13.63;;
69878;SDS011;57161;43.136;24.706;2024-02-28T03:41:37;24.95;;;13.73;;
69878;SDS011;57161;43.136;24.706;2024-02-28T03:44:03;25.05;;;13.27;;
69878;SDS011;57161;43.136;24.706;2024-02-28T03:46:29;22.55;;;12.68;;
69878;SDS011;57161;43.136;24.706;2024-02-28T03:48:54;22.60;;;12.38;;
69878;SDS011;57161;43.136;24.706;2024-02-28T03:51:19;20.15;;;12.10;;
69878;SDS011;57161;43.136;24.706;2024-02-28T03:53:45;21.35;;;12.38;;
69878;SDS011;57161;43.136;24.706;2024-02-28T03:56:10;24.20;;;12.20;;
69878;SDS011;57161;43.136;24.706;2024-02-28T03:58:36;21.73;;;12.60;;
69878;SDS011;57161;43.136;24.706;2024-02-28T04:01:02;17.73;;;10.57;;
69878;SDS011;57161;43.136;24.706;2024-02-28T04:03:28;23.63;;;12.77;;
69878;SDS011;57161;43.136;24.706;2024-02-28T04:05:54;21.85;;;12.25;;
69878;SDS011;57161;43.136;24.706;2024-02-28T04:08:19;25.42;;;14.57;;
69878;SDS011;57161;43.136;24.706;2024-02-28T04:10:45;31.05;;;19.58;;
69878;SDS011;57161;43.136;24.706;2024-02-28T04:13:11;27.58;;;13.95;;
69878;SDS011;57161;43.136;24.706;2024-02-28T04:15:36;27.92;;;14.20;;
69878;SDS011;57161;43.136;24.706;2024-02-28T04:18:03;25.85;;;13.45;;
69878;SDS011;57161;43.136;24.706;2024-02-28T04:20:29;23.35;;;13.23;;
69878;SDS011;57161;43.136;24.706;2024-02-28T04:22:54;22.63;;;12.98;;
69878;SDS011;57161;43.136;24.706;2024-02-28T04:25:19;23.83;;;13.00;;
69878;SDS011;57161;43.136;24.706;2024-02-28T04:27:45;23.05;;;13.40;;
69878;SDS011;57161;43.136;24.706;2024-02-28T04:30:12;24.63;;;13.93;;
69878;SDS011;57161;43.136;24.706;2024-02-28T04:32:38;22.42;;;12.85;;
69878;SDS011;57161;43.136;24.706;2024-02-28T04:35:03;26.13;;;14.65;;
69878;SDS011;57161;43.136;24.706;2024-02-28T04:37:29;30.52;;;16.33;;
69878;SDS011;57161;43.136;24.706;2024-02-28T04:39:54;27.55;;;15.35;;
69878;SDS011;57161;43.136;24.706;2024-02-28T04:42:20;28.13;;;15.00;;
69878;SDS011;57161;43.136;24.706;2024-02-28T04:44:45;24.42;;;13.93;;
69878;SDS011;57161;43.136;24.706;2024-02-28T04:47:11;25.15;;;13.70;;
69878;SDS011;57161;43.136;24.706;2024-02-28T04:49:37;30.60;;;16.02;;
69878;SDS011;57161;43.136;24.706;2024-02-28T04:52:04;23.02;;;13.80;;
69878;SDS011;57161;43.136;24.706;2024-02-28T04:54:30;29.25;;;14.98;;
69878;SDS011;57161;43.136;24.706;2024-02-28T04:56:56;30.35;;;15.25;;
69878;SDS011;57161;43.136;24.706;2024-02-28T04:59:21;27.25;;;15.38;;
69878;SDS011;57161;43.136;24.706;2024-02-28T05:01:47;30.77;;;15.85;;
69878;SDS011;57161;43.136;24.706;2024-02-28T05:04:13;31.10;;;16.83;;
69878;SDS011;57161;43.136;24.706;2024-02-28T05:06:39;27.33;;;15.98;;
69878;SDS011;57161;43.136;24.706;2024-02-28T05:09:04;33.42;;;16.58;;
69878;SDS011;57161;43.136;24.706;2024-02-28T05:11:30;27.88;;;14.95;;
69878;SDS011;57161;43.136;24.706;2024-02-28T05:13:55;24.20;;;14.00;;
69878;SDS011;57161;43.136;24.706;2024-02-28T05:16:21;27.67;;;14.48;;
69878;SDS011;57161;43.136;24.706;2024-02-28T05:18:46;28.48;;;14.68;;
69878;SDS011;57161;43.136;24.706;2024-02-28T05:21:12;25.92;;;14.48;;
69878;SDS011;57161;43.136;24.706;2024-02-28T05:23:40;29.15;;;16.05;;
69878;SDS011;57161;43.136;24.706;2024-02-28T05:26:06;26.85;;;15.40;;
69878;SDS011;57161;43.136;24.706;2024-02-28T05:28:35;24.67;;;14.02;;
69878;SDS011;57161;43.136;24.706;2024-02-28T05:31:19;28.33;;;16.88;;
69878;SDS011;57161;43.136;24.706;2024-02-28T05:33:45;28.83;;;15.63;;
69878;SDS011;57161;43.136;24.706;2024-02-28T05:36:11;28.58;;;16.13;;
69878;SDS011;57161;43.136;24.706;2024-02-28T05:38:36;31.10;;;15.55;;
69878;SDS011;57161;43.136;24.706;2024-02-28T05:41:01;30.60;;;15.68;;
69878;SDS011;57161;43.136;24.706;2024-02-28T05:43:27;32.97;;;19.45;;
69878;SDS011;57161;43.136;24.706;2024-02-28T05:45:53;38.78;;;18.52;;
69878;SDS011;57161;43.136;24.706;2024-02-28T05:48:18;35.45;;;16.75;;
69878;SDS011;57161;43.136;24.706;2024-02-28T05:50:44;30.15;;;17.48;;
69878;SDS011;57161;43.136;24.706;2024-02-28T05:53:09;29.25;;;16.10;;
69878;SDS011;57161;43.136;24.706;2024-02-28T05:55:35;32.35;;;18.95;;
69878;SDS011;57161;43.136;24.706;2024-02-28T05:58:00;35.13;;;16.75;;
69878;SDS011;57161;43.136;24.706;2024-02-28T06:00:26;32.53;;;18.58;;
69878;SDS011;57161;43.136;24.706;2024-02-28T06:02:53;29.23;;;17.60;;
69878;SDS011;57161;43.136;24.706;2024-02-28T06:05:19;37.30;;;17.65;;
69878;SDS011;57161;43.136;24.706;2024-02-28T06:07:44;29.35;;;16.63;;
69878;SDS011;57161;43.136;24.706;2024-02-28T06:10:10;27.98;;;15.52;;
69878;SDS011;57161;43.136;24.706;2024-02-28T06:12:35;25.15;;;14.90;;
69878;SDS011;57161;43.136;24.706;2024-02-28T06:15:01;24.70;;;16.02;;
69878;SDS011;57161;43.136;24.706;2024-02-28T06:17:27;29.08;;;16.73;;
69878;SDS011;57161;43.136;24.706;2024-02-28T06:19:52;29.52;;;14.55;;
69878;SDS011;57161;43.136;24.706;2024-02-28T06:22:18;29.77;;;15.43;;
69878;SDS011;57161;43.136;24.706;2024-02-28T06:24:44;29.52;;;15.48;;
69878;SDS011;57161;43.136;24.706;2024-02-28T06:27:10;26.52;;;16.20;;
69878;SDS011;57161;43.136;24.706;2024-02-28T06:29:38;27.20;;;14.40;;
69878;SDS011;57161;43.136;24.706;2024-02-28T06:32:04;26.33;;;14.88;;
69878;SDS011;57161;43.136;24.706;2024-02-28T06:34:30;23.52;;;14.05;;
69878;SDS011;57161;43.136;24.706;2024-02-28T06:36:56;27.55;;;14.63;;
69878;SDS011;57161;43.136;24.706;2024-02-28T06:39:21;25.25;;;14.75;;
69878;SDS011;57161;43.136;24.706;2024-02-28T06:41:47;27.67;;;15.70;;
69878;SDS011;57161;43.136;24.706;2024-02-28T06:44:16;30.25;;;16.63;;
69878;SDS011;57161;43.136;24.706;2024-02-28T06:46:43;34.13;;;16.63;;
69878;SDS011;57161;43.136;24.706;2024-02-28T06:49:09;27.73;;;15.95;;
69878;SDS011;57161;43.136;24.706;2024-02-28T06:51:34;29.50;;;15.85;;
69878;SDS011;57161;43.136;24.706;2024-02-28T06:54:00;39.53;;;17.98;;
69878;SDS011;57161;43.136;24.706;2024-02-28T06:56:25;30.67;;;17.77;;
69878;SDS011;57161;43.136;24.706;2024-02-28T06:58:51;29.27;;;17.63;;
69878;SDS011;57161;43.136;24.706;2024-02-28T07:01:17;30.67;;;16.92;;
69878;SDS011;57161;43.136;24.706;2024-02-28T07:03:42;31.83;;;17.33;;
69878;SDS011;57161;43.136;24.706;2024-02-28T07:06:08;28.80;;;16.00;;
69878;SDS011;57161;43.136;24.706;2024-02-28T07:08:33;26.08;;;16.13;;
69878;SDS011;57161;43.136;24.706;2024-02-28T07:10:59;30.05;;;18.33;;
69878;SDS011;57161;43.136;24.706;2024-02-28T07:13:24;29.10;;;20.55;;
69878;SDS011;57161;43.136;24.706;2024-02-28T07:15:50;30.20;;;18.17;;
69878;SDS011;57161;43.136;24.706;2024-02-28T07:18:15;32.00;;;19.30;;
69878;SDS011;57161;43.136;24.706;2024-02-28T07:20:41;28.65;;;17.00;;
69878;SDS011;57161;43.136;24.706;2024-02-28T07:23:06;27.45;;;16.27;;
69878;SDS011;57161;43.136;24.706;2024-02-28T07:25:32;28.13;;;17.08;;
69878;SDS011;57161;43.136;24.706;2024-02-28T07:27:58;28.55;;;18.08;;
69878;SDS011;57161;43.136;24.706;2024-02-28T07:30:27;28.60;;;17.58;;
69878;SDS011;57161;43.136;24.706;2024-02-28T07:32:53;30.23;;;17.17;;
69878;SDS011;57161;43.136;24.706;2024-02-28T07:35:19;30.45;;;17.63;;
69878;SDS011;57161;43.136;24.706;2024-02-28T07:37:45;33.08;;;17.92;;
69878;SDS011;57161;43.136;24.706;2024-02-28T07:40:11;34.28;;;17.33;;
69878;SDS011;57161;43.136;24.706;2024-02-28T07:42:37;30.73;;;16.55;;
69878;SDS011;57161;43.136;24.706;2024-02-28T07:45:03;26.48;;;13.93;;
69878;SDS011;57161;43.136;24.706;2024-02-28T07:47:29;29.58;;;15.65;;
69878;SDS011;57161;43.136;24.706;2024-02-28T07:49:54;33.72;;;17.13;;
69878;SDS011;57161;43.136;24.706;2024-02-28T07:52:20;39.45;;;22.92;;
69878;SDS011;57161;43.136;24.706;2024-02-28T07:54:45;33.28;;;17.52;;
69878;SDS011;57161;43.136;24.706;2024-02-28T07:57:11;29.13;;;16.98;;
69878;SDS011;57161;43.136;24.706;2024-02-28T07:59:44;37.47;;;17.60;;
69878;SDS011;57161;43.136;24.706;2024-02-28T08:02:09;33.83;;;19.20;;
69878;SDS011;57161;43.136;24.706;2024-02-28T08:04:37;32.35;;;18.50;;
69878;SDS011;57161;43.136;24.706;2024-02-28T08:07:04;36.05;;;17.45;;
69878;SDS011;57161;43.136;24.706;2024-02-28T08:09:29;33.95;;;17.60;;
69878;SDS011;57161;43.136;24.706;2024-02-28T08:11:55;37.90;;;20.13;;
69878;SDS011;57161;43.136;24.706;2024-02-28T08:14:22;37.53;;;21.15;;
69878;SDS011;57161;43.136;24.706;2024-02-28T08:16:48;35.53;;;19.85;;
69878;SDS011;57161;43.136;24.706;2024-02-28T08:19:14;44.55;;;20.77;;
69878;SDS011;57161;43.136;24.706;2024-02-28T08:21:39;39.88;;;20.50;;
69878;SDS011;57161;43.136;24.706;2024-02-28T08:24:04;35.80;;;19.13;;
69878;SDS011;57161;43.136;24.706;2024-02-28T08:26:30;38.40;;;19.70;;
69878;SDS011;57161;43.136;24.706;2024-02-28T08:28:56;32.55;;;19.38;;
69878;SDS011;57161;43.136;24.706;2024-02-28T08:31:22;30.67;;;17.58;;
69878;SDS011;57161;43.136;24.706;2024-02-28T08:33:47;37.92;;;17.35;;
69878;SDS011;57161;43.136;24.706;2024-02-28T08:36:13;35.95;;;18.67;;
69878;SDS011;57161;43.136;24.706;2024-02-28T08:38:40;37.42;;;19.15;;
69878;SDS011;57161;43.136;24.706;2024-02-28T08:41:06;30.33;;;17.50;;
69878;SDS011;57161;43.136;24.706;2024-02-28T08:43:32;35.88;;;17.55;;
69878;SDS011;57161;43.136;24.706;2024-02-28T08:46:02;39.22;;;20.73;;
69878;SDS011;57161;43.136;24.706;2024-02-28T08:48:29;38.75;;;19.42;;
69878;SDS011;57161;43.136;24.706;2024-02-28T08:50:54;39.25;;;19.50;;
69878;SDS011;57161;43.136;24.706;2024-02-28T08:53:19;47.15;;;24.23;;
69878;SDS011;57161;43.136;24.706;2024-02-28T08:55:45;38.47;;;21.88;;
69878;SDS011;57161;43.136;24.706;2024-02-28T08:58:10;39.83;;;23.92;;
69878;SDS011;57161;43.136;24.706;2024-02-28T09:00:36;36.38;;;19.50;;
69878;SDS011;57161;43.136;24.706;2024-02-28T09:03:01;37.47;;;19.67;;
69878;SDS011;57161;43.136;24.706;2024-02-28T09:05:29;34.28;;;19.75;;
69878;SDS011;57161;43.136;24.706;2024-02-28T09:07:54;39.00;;;18.80;;
69878;SDS011;57161;43.136;24.706;2024-02-28T09:10:20;32.97;;;19.67;;
69878;SDS011;57161;43.136;24.706;2024-02-28T09:12:49;31.73;;;18.15;;
69878;SDS011;57161;43.136;24.706;2024-02-28T09:15:15;35.10;;;20.83;;
69878;SDS011;57161;43.136;24.706;2024-02-28T09:17:40;34.10;;;18.77;;
69878;SDS011;57161;43.136;24.706;2024-02-28T09:20:06;38.08;;;21.67;;
69878;SDS011;57161;43.136;24.706;2024-02-28T09:22:33;33.70;;;18.20;;
69878;SDS011;57161;43.136;24.706;2024-02-28T09:25:00;35.55;;;18.42;;
69878;SDS011;57161;43.136;24.706;2024-02-28T09:27:28;32.60;;;18.38;;
69878;SDS011;57161;43.136;24.706;2024-02-28T09:29:54;33.35;;;19.02;;
69878;SDS011;57161;43.136;24.706;2024-02-28T09:32:19;32.65;;;18.65;;
69878;SDS011;57161;43.136;24.706;2024-02-28T09:34:45;34.75;;;18.63;;
69878;SDS011;57161;43.136;24.706;2024-02-28T09:37:10;35.80;;;18.48;;
69878;SDS011;57161;43.136;24.706;2024-02-28T09:39:40;39.20;;;18.20;;
69878;SDS011;57161;43.136;24.706;2024-02-28T09:42:06;32.33;;;16.95;;
69878;SDS011;57161;43.136;24.706;2024-02-28T09:44:33;36.00;;;16.85;;
69878;SDS011;57161;43.136;24.706;2024-02-28T09:46:59;32.22;;;17.42;;
69878;SDS011;57161;43.136;24.706;2024-02-28T09:49:25;34.55;;;17.42;;
69878;SDS011;57161;43.136;24.706;2024-02-28T09:51:52;39.80;;;17.75;;
69878;SDS011;57161;43.136;24.706;2024-02-28T09:54:18;36.25;;;16.40;;
69878;SDS011;57161;43.136;24.706;2024-02-28T09:56:44;36.08;;;17.23;;
69878;SDS011;57161;43.136;24.706;2024-02-28T09:59:10;32.80;;;16.42;;
69878;SDS011;57161;43.136;24.706;2024-02-28T10:01:37;34.55;;;16.13;;
69878;SDS011;57161;43.136;24.706;2024-02-28T10:04:08;39.17;;;17.33;;
69878;SDS011;57161;43.136;24.706;2024-02-28T10:06:39;31.25;;;16.30;;
69878;SDS011;57161;43.136;24.706;2024-02-28T10:09:05;30.50;;;16.45;;
69878;SDS011;57161;43.136;24.706;2024-02-28T10:11:32;36.45;;;19.42;;
69878;SDS011;57161;43.136;24.706;2024-02-28T10:13:58;30.95;;;16.80;;
69878;SDS011;57161;43.136;24.706;2024-02-28T10:16:24;30.08;;;15.77;;
69878;SDS011;57161;43.136;24.706;2024-02-28T10:18:50;30.20;;;16.92;;
69878;SDS011;57161;43.136;24.706;2024-02-28T10:21:15;26.73;;;15.23;;
69878;SDS011;57161;43.136;24.706;2024-02-28T10:23:41;26.80;;;14.15;;
69878;SDS011;57161;43.136;24.706;2024-02-28T10:26:10;29.17;;;13.15;;
69878;SDS011;57161;43.136;24.706;2024-02-28T10:28:40;32.90;;;15.38;;
69878;SDS011;57161;43.136;24.706;2024-02-28T10:31:09;25.90;;;12.07;;
69878;SDS011;57161;43.136;24.706;2024-02-28T10:33:35;24.88;;;13.13;;
69878;SDS011;57161;43.136;24.706;2024-02-28T10:36:04;26.80;;;13.98;;
69878;SDS011;57161;43.136;24.706;2024-02-28T10:38:31;26.23;;;12.75;;
69878;SDS011;57161;43.136;24.706;2024-02-28T10:41:01;29.38;;;14.25;;
69878;SDS011;57161;43.136;24.706;2024-02-28T10:43:30;29.88;;;15.45;;
69878;SDS011;57161;43.136;24.706;2024-02-28T10:45:59;29.17;;;14.98;;
69878;SDS011;57161;43.136;24.706;2024-02-28T10:48:26;25.00;;;13.07;;
69878;SDS011;57161;43.136;24.706;2024-02-28T10:50:52;23.17;;;12.98;;
69878;SDS011;57161;43.136;24.706;2024-02-28T10:53:21;26.00;;;13.75;;
69878;SDS011;57161;43.136;24.706;2024-02-28T10:56:07;22.80;;;12.90;;
69878;SDS011;57161;43.136;24.706;2024-02-28T10:58:36;30.83;;;14.05;;
69878;SDS011;57161;43.136;24.706;2024-02-28T11:01:04;29.20;;;14.07;;
69878;SDS011;57161;43.136;24.706;2024-02-28T11:03:31;36.15;;;15.98;;
69878;SDS011;57161;43.136;24.706;2024-02-28T11:05:56;27.17;;;13.80;;
69878;SDS011;57161;43.136;24.706;2024-02-28T11:08:22;29.42;;;15.43;;
69878;SDS011;57161;43.136;24.706;2024-02-28T11:11:01;26.63;;;14.20;;
69878;SDS011;57161;43.136;24.706;2024-02-28T11:13:33;23.90;;;14.00;;
69878;SDS011;57161;43.136;24.706;2024-02-28T11:16:09;24.85;;;14.93;;
69878;SDS011;57161;43.136;24.706;2024-02-28T11:18:35;27.67;;;14.18;;
69878;SDS011;57161;43.136;24.706;2024-02-28T11:21:00;26.02;;;15.43;;
69878;SDS011;57161;43.136;24.706;2024-02-28T11:23:35;25.70;;;14.85;;
69878;SDS011;57161;43.136;24.706;2024-02-28T11:26:02;33.05;;;15.50;;
69878;SDS011;57161;43.136;24.706;2024-02-28T11:28:28;23.27;;;14.23;;
69878;SDS011;57161;43.136;24.706;2024-02-28T11:30:54;28.08;;;13.60;;
69878;SDS011;57161;43.136;24.706;2024-02-28T11:33:20;21.55;;;13.18;;
69878;SDS011;57161;43.136;24.706;2024-02-28T11:35:53;23.42;;;12.98;;
69878;SDS011;57161;43.136;24.706;2024-02-28T11:38:20;28.42;;;14.23;;
69878;SDS011;57161;43.136;24.706;2024-02-28T11:40:49;24.73;;;13.63;;
69878;SDS011;57161;43.136;24.706;2024-02-28T11:43:15;26.35;;;13.70;;
69878;SDS011;57161;43.136;24.706;2024-02-28T11:45:40;27.38;;;14.02;;
69878;SDS011;57161;43.136;24.706;2024-02-28T11:48:09;26.63;;;14.15;;
69878;SDS011;57161;43.136;24.706;2024-02-28T11:50:34;22.73;;;13.52;;
69878;SDS011;57161;43.136;24.706;2024-02-28T11:53:02;21.30;;;12.43;;
69878;SDS011;57161;43.136;24.706;2024-02-28T11:55:30;23.25;;;13.00;;
69878;SDS011;57161;43.136;24.706;2024-02-28T11:57:55;23.05;;;12.50;;
69878;SDS011;57161;43.136;24.706;2024-02-28T12:00:21;22.75;;;13.90;;
69878;SDS011;57161;43.136;24.706;2024-02-28T12:02:46;28.80;;;14.30;;
69878;SDS011;57161;43.136;24.706;2024-02-28T12:05:12;21.77;;;13.35;;
69878;SDS011;57161;43.136;24.706;2024-02-28T12:07:38;23.42;;;13.55;;
69878;SDS011;57161;43.136;24.706;2024-02-28T12:10:04;21.17;;;14.13;;
69878;SDS011;57161;43.136;24.706;2024-02-28T12:12:30;25.33;;;14.43;;
69878;SDS011;57161;43.136;24.706;2024-02-28T12:14:59;25.10;;;14.10;;
69878;SDS011;57161;43.136;24.706;2024-02-28T12:17:26;24.35;;;14.93;;
69878;SDS011;57161;43.136;24.706;2024-02-28T12:19:52;27.10;;;15.80;;
69878;SDS011;57161;43.136;24.706;2024-02-28T12:22:18;28.55;;;15.25;;
69878;SDS011;57161;43.136;24.706;2024-02-28T12:24:43;24.35;;;14.30;;
69878;SDS011;57161;43.136;24.706;2024-02-28T12:27:10;26.65;;;14.63;;
69878;SDS011;57161;43.136;24.706;2024-02-28T12:29:35;22.73;;;14.70;;
69878;SDS011;57161;43.136;24.706;2024-02-28T12:32:01;22.10;;;14.10;;
69878;SDS011;57161;43.136;24.706;2024-02-28T12:34:27;26.40;;;16.10;;
69878;SDS011;57161;43.136;24.706;2024-02-28T12:36:52;27.23;;;15.02;;
69878;SDS011;57161;43.136;24.706;2024-02-28T12:39:19;29.88;;;16.25;;
69878;SDS011;57161;43.136;24.706;2024-02-28T12:41:44;31.30;;;15.73;;
69878;SDS011;57161;43.136;24.706;2024-02-28T12:44:10;26.67;;;15.45;;
69878;SDS011;57161;43.136;24.706;2024-02-28T12:46:36;25.85;;;15.15;;
69878;SDS011;57161;43.136;24.706;2024-02-28T12:49:02;23.42;;;14.85;;
69878;SDS011;57161;43.136;24.706;2024-02-28T12:51:41;23.25;;;15.30;;
69878;SDS011;57161;43.136;24.706;2024-02-28T12:54:09;27.95;;;15.38;;
69878;SDS011;57161;43.136;24.706;2024-02-28T12:56:38;25.50;;;14.63;;
69878;SDS011;57161;43.136;24.706;2024-02-28T12:59:04;27.58;;;15.13;;
69878;SDS011;57161;43.136;24.706;2024-02-28T13:01:34;24.52;;;14.98;;
69878;SDS011;57161;43.136;24.706;2024-02-28T13:03:59;29.00;;;15.38;;
69878;SDS011;57161;43.136;24.706;2024-02-28T13:06:25;29.20;;;16.38;;
69878;SDS011;57161;43.136;24.706;2024-02-28T13:08:51;29.02;;;16.17;;
69878;SDS011;57161;43.136;24.706;2024-02-28T13:11:19;29.80;;;17.50;;
69878;SDS011;57161;43.136;24.706;2024-02-28T13:13:46;31.55;;;16.67;;
69878;SDS011;57161;43.136;24.706;2024-02-28T13:16:13;24.45;;;15.88;;
69878;SDS011;57161;43.136;24.706;2024-02-28T13:18:39;30.02;;;16.42;;
69878;SDS011;57161;43.136;24.706;2024-02-28T13:21:04;26.63;;;15.98;;
69878;SDS011;57161;43.136;24.706;2024-02-28T13:23:30;28.23;;;14.10;;
69878;SDS011;57161;43.136;24.706;2024-02-28T13:25:56;23.88;;;14.35;;
69878;SDS011;57161;43.136;24.706;2024-02-28T13:28:22;25.88;;;14.63;;
69878;SDS011;57161;43.136;24.706;2024-02-28T13:30:55;24.13;;;14.82;;
69878;SDS011;57161;43.136;24.706;2024-02-28T13:33:24;30.23;;;14.40;;
69878;SDS011;57161;43.136;24.706;2024-02-28T13:35:50;27.30;;;14.07;;
69878;SDS011;57161;43.136;24.706;2024-02-28T13:38:16;26.42;;;14.25;;
69878;SDS011;57161;43.136;24.706;2024-02-28T13:40:44;31.10;;;13.90;;
69878;SDS011;57161;43.136;24.706;2024-02-28T13:43:13;25.13;;;12.77;;
69878;SDS011;57161;43.136;24.706;2024-02-28T13:45:39;21.92;;;12.82;;
69878;SDS011;57161;43.136;24.706;2024-02-28T13:48:17;21.52;;;11.82;;
69878;SDS011;57161;43.136;24.706;2024-02-28T13:50:46;23.52;;;11.55;;
69878;SDS011;57161;43.136;24.706;2024-02-28T13:53:14;19.60;;;10.82;;
69878;SDS011;57161;43.136;24.706;2024-02-28T13:55:40;17.45;;;10.88;;
69878;SDS011;57161;43.136;24.706;2024-02-28T13:58:10;21.20;;;10.90;;
69878;SDS011;57161;43.136;24.706;2024-02-28T14:00:36;19.38;;;12.27;;
69878;SDS011;57161;43.136;24.706;2024-02-28T14:03:02;20.38;;;10.23;;
69878;SDS011;57161;43.136;24.706;2024-02-28T14:05:29;27.38;;;11.57;;